Crowley, Louisiana
Current Conditions -  °F | °C
As of 2:40 PM on Saturday 25 Oct 2014 (Local Time) from K3R7 Reporting Station
Clear Clear  
Wind Chill: 81°   Ceiling: Unl
Heat Index: 81°   Visibility: 10mi
Dew Point: 48°   Wind: 5mph
Humidity: 32%   Direction: 290°WNW
Pressure: 30.11"   Gusts: NA
Location:  30.21°N, 92.37°W
Report Text: K3R7 251940Z AUTO 29004KT 10SM CLR 27/09 A3011 RMK AO2 T02710089
Loading
Personal Weather Stations






























Interactive Weather Map New forecast layout! Learn more

10-Day Weather Forecast

Advertisements
Track Severe Weather on mobile